EDSB/FKB METAR and TAF weather

Enter ICAO airport designator
Station Type Date Time Source
EDSB METAR 2019/12/12 11:50 UTC NOAA

EDSB 121150Z 25005KT 9999 VCSH SCT015 BKN022 OVC044 04/03 Q1005


Station Type Date Time Source
EDSB Decoded METAR 2019/12/12 11:50 UTC NOAA

Karlsruhe, Baden Wurttemberg, Germany (EDSB) 48-46-43N 008-04-47E
Dec 12, 2019 - 06:50 AM EST / 2019.12.12 1150 UTC
Wind: from the WSW (250 degrees) at 6 MPH (5 KT):0
Visibility: greater than 7 mile(s):0
Sky conditions: overcast
Weather: showers in the vicinity
Temperature: 39 F (4 C)
Dew Point: 37 F (3 C)
Relative Humidity: 93%
Pressure (altimeter): 29.68 in. Hg (1005 hPa)
ob: EDSB 121150Z 25005KT 9999 VCSH SCT015 BKN022 OVC044 04/03 Q1005
cycle: 12

Station Type Date Time Source
EDSB TAF 2019/12/12 12:29 UTC NOAA

TAF EDSB 121100Z 1212/1312 20006KT 9999 BKN025
BECMG 1300/1303 20012KT
TEMPO 1301/1312 4000 RA BKN012
TEMPO 1304/1312 21015G25KT

Example: see airport list